Terminal Aerodrome Forecast
Issued by NWS Grand Rapids, MI

Home | Current Version | Previous Version | Text Only | Print | Product List | Glossary On
Versions: 1 2 3 4 5 6 7 8 9 10 11 12 13 14 15 16 17 18 19 20 21 22 23 24 25 26 27
000
FTUS43 KGRR 250200 AAB
TAFGRR
TAF AMD
KGRR 250210Z 2502/2524 25010KT 5SM -SNRA BR OVC006
     FM250300 27012KT 4SM -SN BR OVC007
     FM250800 26012G20KT P6SM OVC015
     FM251200 24012G20KT P6SM OVC025
     FM252100 22015G25KT P6SM BKN050
     FM252300 21010KT P6SM BKN250=

USA.gov is the U.S. government's official web portal to all federal, state and local government web resources and services.